Terminal Aerodrome Forecast
Issued by NWS

Home | Current Version | Previous Version | Text Only | Print | Product List | Glossary On
Versions: 1 2 3 4 5 6 7 8 9 10 11 12 13 14 15 16 17 18 19 20
000
FTUS42 KTBW 300307 AAA
TAFPIE
TAF AMD
KPIE 300307Z 3003/3024 11012G18KT P6SM FEW020 BKN200
     FM300600 11008KT P6SM FEW020 BKN200
     FM301600 12010KT 6SM SHRA VCTS SCT018CB BKN040=

USA.gov is the U.S. government's official web portal to all federal, state and local government web resources and services.